Terminal Aerodrome Forecast
Issued by NWS Nashville, TN

Current Version | Previous Version | Text Only | Print | Product List | Glossary Off
Versions: 1 2 3 4 5 6 7 8 9 10 11 12 13 14 15 16 17 18

262
FTUS44 KOHX 090713 AAA
TAFBNA
TAF AMD
KBNA 090713Z 0907/1006 32007KT P6SM -SN SCT012 SCT030 OVC045
      TEMPO 0908/0912 5SM -SN BR BKN025
     FM091200 30008G18KT 4SM -SN BR OVC025
     FM100200 31009G18KT P6SM OVC025=

USA.gov is the U.S. government's official web portal to all federal, state and local government web resources and services.